sensor_id;sensor_type;location;lat;lon;timestamp;temperature;humidity
48978;DHT22;34793;48.940;2.618;2022-12-11T00:01:59;7.20;81.30
48978;DHT22;34793;48.940;2.618;2022-12-11T00:04:24;7.00;80.80
48978;DHT22;34793;48.940;2.618;2022-12-11T00:06:50;6.90;81.40
48978;DHT22;34793;48.940;2.618;2022-12-11T00:09:16;6.90;81.30
48978;DHT22;34793;48.940;2.618;2022-12-11T00:11:42;7.00;80.80
48978;DHT22;34793;48.940;2.618;2022-12-11T00:14:08;7.10;80.60
48978;DHT22;34793;48.940;2.618;2022-12-11T00:16:33;7.00;80.90
48978;DHT22;34793;48.940;2.618;2022-12-11T00:18:59;6.80;81.40
48978;DHT22;34793;48.940;2.618;2022-12-11T00:21:24;7.00;81.10
48978;DHT22;34793;48.940;2.618;2022-12-11T00:23:50;6.90;82.10
48978;DHT22;34793;48.940;2.618;2022-12-11T00:26:16;6.60;83.10
48978;DHT22;34793;48.940;2.618;2022-12-11T00:28:42;6.50;83.30
48978;DHT22;34793;48.940;2.618;2022-12-11T00:31:08;6.50;83.30
48978;DHT22;34793;48.940;2.618;2022-12-11T00:33:38;6.50;82.80
48978;DHT22;34793;48.940;2.618;2022-12-11T00:36:09;6.50;82.20
48978;DHT22;34793;48.940;2.618;2022-12-11T00:38:35;6.60;81.70
48978;DHT22;34793;48.940;2.618;2022-12-11T00:41:00;6.70;82.10
48978;DHT22;34793;48.940;2.618;2022-12-11T00:43:26;6.80;82.20
48978;DHT22;34793;48.940;2.618;2022-12-11T00:45:51;7.00;81.20
48978;DHT22;34793;48.940;2.618;2022-12-11T00:48:17;7.10;80.30
48978;DHT22;34793;48.940;2.618;2022-12-11T00:50:42;7.30;80.60
48978;DHT22;34793;48.940;2.618;2022-12-11T00:53:08;7.40;79.90
48978;DHT22;34793;48.940;2.618;2022-12-11T00:55:37;7.40;79.60
48978;DHT22;34793;48.940;2.618;2022-12-11T00:58:03;7.40;79.30
48978;DHT22;34793;48.940;2.618;2022-12-11T01:00:28;7.60;79.10
48978;DHT22;34793;48.940;2.618;2022-12-11T01:02:54;7.60;79.10
48978;DHT22;34793;48.940;2.618;2022-12-11T01:05:19;7.50;79.30
48978;DHT22;34793;48.940;2.618;2022-12-11T01:07:45;7.50;79.40
48978;DHT22;34793;48.940;2.618;2022-12-11T01:10:11;7.60;79.60
48978;DHT22;34793;48.940;2.618;2022-12-11T01:15:15;7.70;79.00
48978;DHT22;34793;48.940;2.618;2022-12-11T01:17:40;7.60;79.10
48978;DHT22;34793;48.940;2.618;2022-12-11T01:20:06;7.50;78.90
48978;DHT22;34793;48.940;2.618;2022-12-11T01:22:32;7.40;78.70
48978;DHT22;34793;48.940;2.618;2022-12-11T01:24:57;7.40;78.50
48978;DHT22;34793;48.940;2.618;2022-12-11T01:27:23;7.50;77.70
48978;DHT22;34793;48.940;2.618;2022-12-11T01:29:48;7.10;79.30
48978;DHT22;34793;48.940;2.618;2022-12-11T01:32:14;7.10;79.70
48978;DHT22;34793;48.940;2.618;2022-12-11T01:34:40;6.90;79.60
48978;DHT22;34793;48.940;2.618;2022-12-11T01:37:05;6.80;80.60
48978;DHT22;34793;48.940;2.618;2022-12-11T01:39:31;6.80;80.60
48978;DHT22;34793;48.940;2.618;2022-12-11T01:41:57;6.70;80.90
48978;DHT22;34793;48.940;2.618;2022-12-11T01:46:48;6.60;80.90
48978;DHT22;34793;48.940;2.618;2022-12-11T01:49:14;6.80;80.80
48978;DHT22;34793;48.940;2.618;2022-12-11T01:51:44;6.70;80.40
48978;DHT22;34793;48.940;2.618;2022-12-11T01:54:13;6.60;81.60
48978;DHT22;34793;48.940;2.618;2022-12-11T01:56:39;6.40;82.50
48978;DHT22;34793;48.940;2.618;2022-12-11T01:59:06;6.50;82.60
48978;DHT22;34793;48.940;2.618;2022-12-11T02:03:59;6.80;81.20
48978;DHT22;34793;48.940;2.618;2022-12-11T02:06:36;6.90;80.50
48978;DHT22;34793;48.940;2.618;2022-12-11T02:09:02;7.30;80.20
48978;DHT22;34793;48.940;2.618;2022-12-11T02:11:52;7.10;79.00
48978;DHT22;34793;48.940;2.618;2022-12-11T02:17:27;7.30;80.00
48978;DHT22;34793;48.940;2.618;2022-12-11T02:20:10;6.90;80.40
48978;DHT22;34793;48.940;2.618;2022-12-11T02:22:57;6.80;80.90
48978;DHT22;34793;48.940;2.618;2022-12-11T02:25:39;6.90;81.00
48978;DHT22;34793;48.940;2.618;2022-12-11T02:28:18;6.90;80.50
48978;DHT22;34793;48.940;2.618;2022-12-11T02:31:00;7.00;80.40
48978;DHT22;34793;48.940;2.618;2022-12-11T02:34:11;6.90;79.80
48978;DHT22;34793;48.940;2.618;2022-12-11T02:36:16;6.80;80.10
48978;DHT22;34793;48.940;2.618;2022-12-11T02:38:43;6.80;80.80
48978;DHT22;34793;48.940;2.618;2022-12-11T02:41:14;6.90;80.30
48978;DHT22;34793;48.940;2.618;2022-12-11T02:43:41;7.20;79.50
48978;DHT22;34793;48.940;2.618;2022-12-11T02:46:07;6.90;80.20
48978;DHT22;34793;48.940;2.618;2022-12-11T02:48:33;6.90;79.70
48978;DHT22;34793;48.940;2.618;2022-12-11T02:51:00;6.70;80.90
48978;DHT22;34793;48.940;2.618;2022-12-11T02:53:28;6.80;80.70
48978;DHT22;34793;48.940;2.618;2022-12-11T02:55:57;6.90;80.20
48978;DHT22;34793;48.940;2.618;2022-12-11T02:58:25;6.80;80.00
48978;DHT22;34793;48.940;2.618;2022-12-11T03:00:52;6.60;80.30
48978;DHT22;34793;48.940;2.618;2022-12-11T03:03:17;6.50;80.60
48978;DHT22;34793;48.940;2.618;2022-12-11T03:05:43;6.20;80.80
48978;DHT22;34793;48.940;2.618;2022-12-11T03:08:10;6.50;81.50
48978;DHT22;34793;48.940;2.618;2022-12-11T03:10:36;6.30;81.30
48978;DHT22;34793;48.940;2.618;2022-12-11T03:13:01;6.60;81.10
48978;DHT22;34793;48.940;2.618;2022-12-11T03:15:38;6.90;80.10
48978;DHT22;34793;48.940;2.618;2022-12-11T03:18:17;7.10;79.70
48978;DHT22;34793;48.940;2.618;2022-12-11T03:21:07;7.10;79.70
48978;DHT22;34793;48.940;2.618;2022-12-11T03:23:33;7.00;79.50
48978;DHT22;34793;48.940;2.618;2022-12-11T03:26:10;7.00;79.20
48978;DHT22;34793;48.940;2.618;2022-12-11T03:31:28;6.70;80.50
48978;DHT22;34793;48.940;2.618;2022-12-11T03:33:56;6.80;79.50
48978;DHT22;34793;48.940;2.618;2022-12-11T03:36:29;6.80;80.60
48978;DHT22;34793;48.940;2.618;2022-12-11T03:38:57;6.80;79.80
48978;DHT22;34793;48.940;2.618;2022-12-11T03:41:24;6.50;79.20
48978;DHT22;34793;48.940;2.618;2022-12-11T03:43:51;5.90;82.50
48978;DHT22;34793;48.940;2.618;2022-12-11T03:46:18;6.10;82.40
48978;DHT22;34793;48.940;2.618;2022-12-11T03:48:46;6.20;82.60
48978;DHT22;34793;48.940;2.618;2022-12-11T03:51:12;6.20;80.60
48978;DHT22;34793;48.940;2.618;2022-12-11T03:53:39;6.30;80.50
48978;DHT22;34793;48.940;2.618;2022-12-11T03:56:05;6.20;81.10
48978;DHT22;34793;48.940;2.618;2022-12-11T03:58:31;6.20;80.40
48978;DHT22;34793;48.940;2.618;2022-12-11T04:00:56;6.10;81.40
48978;DHT22;34793;48.940;2.618;2022-12-11T04:03:22;6.20;80.90
48978;DHT22;34793;48.940;2.618;2022-12-11T04:05:48;6.40;80.50
48978;DHT22;34793;48.940;2.618;2022-12-11T04:08:15;6.10;81.30
48978;DHT22;34793;48.940;2.618;2022-12-11T04:10:40;5.90;82.10
48978;DHT22;34793;48.940;2.618;2022-12-11T04:13:06;6.20;82.40
48978;DHT22;34793;48.940;2.618;2022-12-11T04:15:32;6.20;81.40
48978;DHT22;34793;48.940;2.618;2022-12-11T04:17:58;6.30;80.90
48978;DHT22;34793;48.940;2.618;2022-12-11T04:20:42;6.40;80.90
48978;DHT22;34793;48.940;2.618;2022-12-11T04:23:26;6.50;80.60
48978;DHT22;34793;48.940;2.618;2022-12-11T04:26:14;6.40;80.10
48978;DHT22;34793;48.940;2.618;2022-12-11T04:28:40;5.90;81.20
48978;DHT22;34793;48.940;2.618;2022-12-11T04:31:09;5.90;81.80
48978;DHT22;34793;48.940;2.618;2022-12-11T04:33:35;5.90;81.00
48978;DHT22;34793;48.940;2.618;2022-12-11T04:36:00;5.90;82.40
48978;DHT22;34793;48.940;2.618;2022-12-11T04:38:26;5.40;82.10
48978;DHT22;34793;48.940;2.618;2022-12-11T04:41:02;5.00;84.00
48978;DHT22;34793;48.940;2.618;2022-12-11T04:43:28;4.40;86.00
48978;DHT22;34793;48.940;2.618;2022-12-11T04:46:03;4.30;87.80
48978;DHT22;34793;48.940;2.618;2022-12-11T04:48:29;4.40;87.10
48978;DHT22;34793;48.940;2.618;2022-12-11T04:50:55;4.80;86.50
48978;DHT22;34793;48.940;2.618;2022-12-11T04:53:20;4.90;85.50
48978;DHT22;34793;48.940;2.618;2022-12-11T04:55:46;5.20;85.30
48978;DHT22;34793;48.940;2.618;2022-12-11T04:58:11;5.40;83.80
48978;DHT22;34793;48.940;2.618;2022-12-11T05:00:36;5.40;82.40
48978;DHT22;34793;48.940;2.618;2022-12-11T05:03:04;5.30;82.80
48978;DHT22;34793;48.940;2.618;2022-12-11T05:05:29;5.20;82.30
48978;DHT22;34793;48.940;2.618;2022-12-11T05:07:55;5.20;82.80
48978;DHT22;34793;48.940;2.618;2022-12-11T05:10:20;5.30;82.90
48978;DHT22;34793;48.940;2.618;2022-12-11T05:12:46;5.40;82.60
48978;DHT22;34793;48.940;2.618;2022-12-11T05:15:11;5.60;82.10
48978;DHT22;34793;48.940;2.618;2022-12-11T05:17:37;5.90;81.60
48978;DHT22;34793;48.940;2.618;2022-12-11T05:20:02;5.70;81.00
48978;DHT22;34793;48.940;2.618;2022-12-11T05:22:29;5.90;80.70
48978;DHT22;34793;48.940;2.618;2022-12-11T05:24:54;5.80;80.90
48978;DHT22;34793;48.940;2.618;2022-12-11T05:27:20;5.80;81.40
48978;DHT22;34793;48.940;2.618;2022-12-11T05:29:45;5.70;80.90
48978;DHT22;34793;48.940;2.618;2022-12-11T05:32:12;5.80;81.10
48978;DHT22;34793;48.940;2.618;2022-12-11T05:34:38;5.90;80.80
48978;DHT22;34793;48.940;2.618;2022-12-11T05:37:03;5.90;80.70
48978;DHT22;34793;48.940;2.618;2022-12-11T05:39:29;5.80;80.50
48978;DHT22;34793;48.940;2.618;2022-12-11T05:41:55;5.90;81.50
48978;DHT22;34793;48.940;2.618;2022-12-11T05:44:20;6.00;80.70
48978;DHT22;34793;48.940;2.618;2022-12-11T05:46:45;6.10;80.10
48978;DHT22;34793;48.940;2.618;2022-12-11T05:49:11;5.90;80.60
48978;DHT22;34793;48.940;2.618;2022-12-11T05:51:36;5.90;80.10
48978;DHT22;34793;48.940;2.618;2022-12-11T05:54:03;5.80;79.70
48978;DHT22;34793;48.940;2.618;2022-12-11T05:56:30;5.70;80.10
48978;DHT22;34793;48.940;2.618;2022-12-11T05:58:56;5.80;80.30
48978;DHT22;34793;48.940;2.618;2022-12-11T06:01:24;5.90;80.00
48978;DHT22;34793;48.940;2.618;2022-12-11T06:03:50;5.80;80.00
48978;DHT22;34793;48.940;2.618;2022-12-11T06:06:15;5.70;81.20
48978;DHT22;34793;48.940;2.618;2022-12-11T06:08:41;5.60;80.80
48978;DHT22;34793;48.940;2.618;2022-12-11T06:11:07;5.80;80.40
48978;DHT22;34793;48.940;2.618;2022-12-11T06:13:33;5.70;80.50
48978;DHT22;34793;48.940;2.618;2022-12-11T06:15:59;5.70;80.80
48978;DHT22;34793;48.940;2.618;2022-12-11T06:18:25;5.60;81.00
48978;DHT22;34793;48.940;2.618;2022-12-11T06:20:51;5.70;81.10
48978;DHT22;34793;48.940;2.618;2022-12-11T06:23:16;6.10;80.00
48978;DHT22;34793;48.940;2.618;2022-12-11T06:25:42;5.90;79.60
48978;DHT22;34793;48.940;2.618;2022-12-11T06:28:07;5.90;80.20
48978;DHT22;34793;48.940;2.618;2022-12-11T06:30:33;5.80;80.90
48978;DHT22;34793;48.940;2.618;2022-12-11T06:32:58;5.50;81.50
48978;DHT22;34793;48.940;2.618;2022-12-11T06:35:24;5.40;81.10
48978;DHT22;34793;48.940;2.618;2022-12-11T06:37:50;5.60;81.30
48978;DHT22;34793;48.940;2.618;2022-12-11T06:40:15;5.50;81.60
48978;DHT22;34793;48.940;2.618;2022-12-11T06:42:41;5.60;80.90
48978;DHT22;34793;48.940;2.618;2022-12-11T06:45:06;5.90;81.00
48978;DHT22;34793;48.940;2.618;2022-12-11T06:47:32;6.00;79.70
48978;DHT22;34793;48.940;2.618;2022-12-11T06:49:58;6.30;78.90
48978;DHT22;34793;48.940;2.618;2022-12-11T06:52:24;6.30;78.00
48978;DHT22;34793;48.940;2.618;2022-12-11T06:54:50;6.20;78.40
48978;DHT22;34793;48.940;2.618;2022-12-11T06:57:16;6.00;78.80
48978;DHT22;34793;48.940;2.618;2022-12-11T06:59:41;6.20;78.80
48978;DHT22;34793;48.940;2.618;2022-12-11T07:02:10;5.90;78.80
48978;DHT22;34793;48.940;2.618;2022-12-11T07:04:36;5.60;80.30
48978;DHT22;34793;48.940;2.618;2022-12-11T07:07:02;5.60;79.60
48978;DHT22;34793;48.940;2.618;2022-12-11T07:09:27;5.60;79.80
48978;DHT22;34793;48.940;2.618;2022-12-11T07:11:53;5.60;79.50
48978;DHT22;34793;48.940;2.618;2022-12-11T07:14:28;5.10;80.60
48978;DHT22;34793;48.940;2.618;2022-12-11T07:16:53;5.10;80.70
48978;DHT22;34793;48.940;2.618;2022-12-11T07:19:19;5.10;81.00
48978;DHT22;34793;48.940;2.618;2022-12-11T07:21:44;5.30;81.00
48978;DHT22;34793;48.940;2.618;2022-12-11T07:24:09;5.60;80.00
48978;DHT22;34793;48.940;2.618;2022-12-11T07:26:35;5.70;79.80
48978;DHT22;34793;48.940;2.618;2022-12-11T07:29:00;5.60;79.40
48978;DHT22;34793;48.940;2.618;2022-12-11T07:31:26;5.50;79.30
48978;DHT22;34793;48.940;2.618;2022-12-11T07:34:04;5.20;80.20
48978;DHT22;34793;48.940;2.618;2022-12-11T07:36:30;5.10;82.00
48978;DHT22;34793;48.940;2.618;2022-12-11T07:38:56;5.30;81.00
48978;DHT22;34793;48.940;2.618;2022-12-11T07:41:21;5.50;80.10
48978;DHT22;34793;48.940;2.618;2022-12-11T07:43:47;5.10;81.10
48978;DHT22;34793;48.940;2.618;2022-12-11T07:46:16;4.70;81.30
48978;DHT22;34793;48.940;2.618;2022-12-11T07:48:43;4.80;82.80
48978;DHT22;34793;48.940;2.618;2022-12-11T07:51:16;4.60;81.60
48978;DHT22;34793;48.940;2.618;2022-12-11T07:53:42;4.20;83.80
48978;DHT22;34793;48.940;2.618;2022-12-11T07:56:07;4.10;85.00
48978;DHT22;34793;48.940;2.618;2022-12-11T07:58:33;3.90;84.70
48978;DHT22;34793;48.940;2.618;2022-12-11T08:00:59;4.20;85.00
48978;DHT22;34793;48.940;2.618;2022-12-11T08:03:24;4.10;84.20
48978;DHT22;34793;48.940;2.618;2022-12-11T08:05:50;4.50;82.70
48978;DHT22;34793;48.940;2.618;2022-12-11T08:08:16;4.60;83.00
48978;DHT22;34793;48.940;2.618;2022-12-11T08:10:42;4.50;83.20
48978;DHT22;34793;48.940;2.618;2022-12-11T08:13:08;4.60;82.50
48978;DHT22;34793;48.940;2.618;2022-12-11T08:15:34;4.70;82.70
48978;DHT22;34793;48.940;2.618;2022-12-11T08:17:59;4.80;82.10
48978;DHT22;34793;48.940;2.618;2022-12-11T08:20:26;4.90;81.80
48978;DHT22;34793;48.940;2.618;2022-12-11T08:22:52;4.70;81.50
48978;DHT22;34793;48.940;2.618;2022-12-11T08:25:17;4.70;82.20
48978;DHT22;34793;48.940;2.618;2022-12-11T08:27:43;4.70;82.20
48978;DHT22;34793;48.940;2.618;2022-12-11T08:30:08;4.80;82.20
48978;DHT22;34793;48.940;2.618;2022-12-11T08:32:34;5.00;81.90
48978;DHT22;34793;48.940;2.618;2022-12-11T08:35:00;5.30;81.50
48978;DHT22;34793;48.940;2.618;2022-12-11T08:37:25;5.60;80.90
48978;DHT22;34793;48.940;2.618;2022-12-11T08:39:51;5.60;80.00
48978;DHT22;34793;48.940;2.618;2022-12-11T08:42:17;5.60;79.10
48978;DHT22;34793;48.940;2.618;2022-12-11T08:44:42;5.70;79.60
48978;DHT22;34793;48.940;2.618;2022-12-11T08:47:08;5.80;79.70
48978;DHT22;34793;48.940;2.618;2022-12-11T08:49:36;5.80;79.30
48978;DHT22;34793;48.940;2.618;2022-12-11T08:52:02;5.80;79.60
48978;DHT22;34793;48.940;2.618;2022-12-11T08:54:28;6.10;79.10
48978;DHT22;34793;48.940;2.618;2022-12-11T08:56:53;5.80;79.20
48978;DHT22;34793;48.940;2.618;2022-12-11T08:59:19;5.90;79.90
48978;DHT22;34793;48.940;2.618;2022-12-11T09:01:44;5.70;78.80
48978;DHT22;34793;48.940;2.618;2022-12-11T09:04:10;5.70;80.40
48978;DHT22;34793;48.940;2.618;2022-12-11T09:06:35;5.80;79.60
48978;DHT22;34793;48.940;2.618;2022-12-11T09:09:01;5.70;79.40
48978;DHT22;34793;48.940;2.618;2022-12-11T09:11:28;6.00;79.20
48978;DHT22;34793;48.940;2.618;2022-12-11T09:13:55;5.90;78.90
48978;DHT22;34793;48.940;2.618;2022-12-11T09:16:21;5.90;78.90
48978;DHT22;34793;48.940;2.618;2022-12-11T09:18:48;5.70;78.80
48978;DHT22;34793;48.940;2.618;2022-12-11T09:21:15;5.80;78.70
48978;DHT22;34793;48.940;2.618;2022-12-11T09:23:41;5.90;78.60
48978;DHT22;34793;48.940;2.618;2022-12-11T09:26:07;6.00;78.10
48978;DHT22;34793;48.940;2.618;2022-12-11T09:28:35;6.20;78.50
48978;DHT22;34793;48.940;2.618;2022-12-11T09:31:06;6.20;77.60
48978;DHT22;34793;48.940;2.618;2022-12-11T09:33:32;6.10;78.40
48978;DHT22;34793;48.940;2.618;2022-12-11T09:36:00;6.10;77.80
48978;DHT22;34793;48.940;2.618;2022-12-11T09:38:27;5.80;79.20
48978;DHT22;34793;48.940;2.618;2022-12-11T09:40:53;6.00;79.30
48978;DHT22;34793;48.940;2.618;2022-12-11T09:43:32;6.20;79.40
48978;DHT22;34793;48.940;2.618;2022-12-11T09:46:01;6.20;77.60
48978;DHT22;34793;48.940;2.618;2022-12-11T09:48:27;6.00;79.20
48978;DHT22;34793;48.940;2.618;2022-12-11T09:50:55;6.20;79.00
48978;DHT22;34793;48.940;2.618;2022-12-11T09:53:24;6.00;78.60
48978;DHT22;34793;48.940;2.618;2022-12-11T09:56:03;6.10;79.30
48978;DHT22;34793;48.940;2.618;2022-12-11T10:01:08;6.20;77.70
48978;DHT22;34793;48.940;2.618;2022-12-11T10:08:52;6.10;78.30
48978;DHT22;34793;48.940;2.618;2022-12-11T10:11:28;6.10;78.50
48978;DHT22;34793;48.940;2.618;2022-12-11T10:14:01;5.90;78.60
48978;DHT22;34793;48.940;2.618;2022-12-11T10:16:35;5.90;79.30
48978;DHT22;34793;48.940;2.618;2022-12-11T10:19:01;6.00;78.50
48978;DHT22;34793;48.940;2.618;2022-12-11T10:21:28;6.00;78.30
48978;DHT22;34793;48.940;2.618;2022-12-11T10:23:59;6.00;78.00
48978;DHT22;34793;48.940;2.618;2022-12-11T10:26:26;5.90;77.20
48978;DHT22;34793;48.940;2.618;2022-12-11T10:28:52;5.50;78.30
48978;DHT22;34793;48.940;2.618;2022-12-11T10:31:19;5.60;79.30
48978;DHT22;34793;48.940;2.618;2022-12-11T10:33:59;5.60;79.70
48978;DHT22;34793;48.940;2.618;2022-12-11T10:36:30;5.70;79.50
48978;DHT22;34793;48.940;2.618;2022-12-11T10:38:56;5.80;79.50
48978;DHT22;34793;48.940;2.618;2022-12-11T10:41:23;6.00;79.20
48978;DHT22;34793;48.940;2.618;2022-12-11T10:43:50;6.30;78.30
48978;DHT22;34793;48.940;2.618;2022-12-11T10:46:25;6.10;78.40
48978;DHT22;34793;48.940;2.618;2022-12-11T10:51:18;6.00;79.00
48978;DHT22;34793;48.940;2.618;2022-12-11T10:53:48;5.90;79.80
48978;DHT22;34793;48.940;2.618;2022-12-11T11:02:02;6.10;78.60
48978;DHT22;34793;48.940;2.618;2022-12-11T11:04:30;6.30;78.90
48978;DHT22;34793;48.940;2.618;2022-12-11T11:07:00;6.40;78.60
48978;DHT22;34793;48.940;2.618;2022-12-11T11:09:30;6.50;78.50
48978;DHT22;34793;48.940;2.618;2022-12-11T11:11:56;6.40;77.60
48978;DHT22;34793;48.940;2.618;2022-12-11T11:14:21;6.50;78.20
48978;DHT22;34793;48.940;2.618;2022-12-11T11:16:51;6.40;77.80
48978;DHT22;34793;48.940;2.618;2022-12-11T11:19:24;6.50;77.50
48978;DHT22;34793;48.940;2.618;2022-12-11T11:21:52;6.70;77.80
48978;DHT22;34793;48.940;2.618;2022-12-11T11:24:23;6.60;75.90
48978;DHT22;34793;48.940;2.618;2022-12-11T11:26:50;6.30;78.70
48978;DHT22;34793;48.940;2.618;2022-12-11T11:29:24;6.50;78.70
48978;DHT22;34793;48.940;2.618;2022-12-11T11:31:50;6.70;77.90
48978;DHT22;34793;48.940;2.618;2022-12-11T11:34:17;6.60;77.50
48978;DHT22;34793;48.940;2.618;2022-12-11T11:36:44;6.80;77.90
48978;DHT22;34793;48.940;2.618;2022-12-11T11:39:22;6.90;77.30
48978;DHT22;34793;48.940;2.618;2022-12-11T11:42:34;6.60;76.40
48978;DHT22;34793;48.940;2.618;2022-12-11T11:47:21;6.50;76.60
48978;DHT22;34793;48.940;2.618;2022-12-11T11:49:59;6.20;77.60
48978;DHT22;34793;48.940;2.618;2022-12-11T11:52:38;5.70;78.10
48978;DHT22;34793;48.940;2.618;2022-12-11T11:55:07;6.00;80.20
48978;DHT22;34793;48.940;2.618;2022-12-11T12:02:39;5.70;80.50
48978;DHT22;34793;48.940;2.618;2022-12-11T12:05:08;6.10;79.50
48978;DHT22;34793;48.940;2.618;2022-12-11T12:10:21;6.20;79.30
48978;DHT22;34793;48.940;2.618;2022-12-11T12:13:05;5.90;78.80
48978;DHT22;34793;48.940;2.618;2022-12-11T12:25:26;6.70;76.40
48978;DHT22;34793;48.940;2.618;2022-12-11T12:30:50;6.90;76.80
48978;DHT22;34793;48.940;2.618;2022-12-11T12:36:55;7.60;75.90
48978;DHT22;34793;48.940;2.618;2022-12-11T12:41:48;7.60;75.50
48978;DHT22;34793;48.940;2.618;2022-12-11T12:44:18;7.60;74.20
48978;DHT22;34793;48.940;2.618;2022-12-11T12:49:20;7.60;74.10
48978;DHT22;34793;48.940;2.618;2022-12-11T12:51:47;7.10;74.90
48978;DHT22;34793;48.940;2.618;2022-12-11T12:54:15;7.20;74.50
48978;DHT22;34793;48.940;2.618;2022-12-11T12:56:41;6.70;75.30
48978;DHT22;34793;48.940;2.618;2022-12-11T12:59:20;6.30;78.00
48978;DHT22;34793;48.940;2.618;2022-12-11T13:01:46;6.40;78.60
48978;DHT22;34793;48.940;2.618;2022-12-11T13:04:25;6.70;78.10
48978;DHT22;34793;48.940;2.618;2022-12-11T13:06:51;6.90;77.60
48978;DHT22;34793;48.940;2.618;2022-12-11T13:09:21;7.10;76.70
48978;DHT22;34793;48.940;2.618;2022-12-11T13:11:48;7.30;76.20
48978;DHT22;34793;48.940;2.618;2022-12-11T13:16:43;7.60;74.40
48978;DHT22;34793;48.940;2.618;2022-12-11T13:22:21;6.50;77.70
48978;DHT22;34793;48.940;2.618;2022-12-11T13:24:55;6.60;77.40
48978;DHT22;34793;48.940;2.618;2022-12-11T13:27:25;7.00;76.90
48978;DHT22;34793;48.940;2.618;2022-12-11T13:29:51;7.30;75.00
48978;DHT22;34793;48.940;2.618;2022-12-11T13:34:43;7.90;74.20
48978;DHT22;34793;48.940;2.618;2022-12-11T13:39:53;7.00;74.20
48978;DHT22;34793;48.940;2.618;2022-12-11T13:44:56;7.20;76.50
48978;DHT22;34793;48.940;2.618;2022-12-11T13:47:23;7.30;75.20
48978;DHT22;34793;48.940;2.618;2022-12-11T13:49:52;7.10;74.60
48978;DHT22;34793;48.940;2.618;2022-12-11T13:52:20;6.70;76.00
48978;DHT22;34793;48.940;2.618;2022-12-11T13:54:47;7.10;76.30
48978;DHT22;34793;48.940;2.618;2022-12-11T13:57:17;6.90;75.60
48978;DHT22;34793;48.940;2.618;2022-12-11T13:59:49;7.10;76.20
48978;DHT22;34793;48.940;2.618;2022-12-11T14:02:21;7.40;74.10
48978;DHT22;34793;48.940;2.618;2022-12-11T14:04:48;7.40;73.90
48978;DHT22;34793;48.940;2.618;2022-12-11T14:07:16;7.40;74.90
48978;DHT22;34793;48.940;2.618;2022-12-11T14:09:44;7.60;73.60
48978;DHT22;34793;48.940;2.618;2022-12-11T14:12:17;7.70;72.60
48978;DHT22;34793;48.940;2.618;2022-12-11T14:14:50;7.70;72.80
48978;DHT22;34793;48.940;2.618;2022-12-11T14:17:21;7.70;72.50
48978;DHT22;34793;48.940;2.618;2022-12-11T14:19:48;7.80;72.50
48978;DHT22;34793;48.940;2.618;2022-12-11T14:22:18;7.90;73.10
48978;DHT22;34793;48.940;2.618;2022-12-11T14:24:54;7.80;71.90
48978;DHT22;34793;48.940;2.618;2022-12-11T14:27:19;7.80;72.30
48978;DHT22;34793;48.940;2.618;2022-12-11T14:29:45;7.90;71.70
48978;DHT22;34793;48.940;2.618;2022-12-11T14:32:15;7.70;72.00
48978;DHT22;34793;48.940;2.618;2022-12-11T14:34:42;7.60;72.40
48978;DHT22;34793;48.940;2.618;2022-12-11T14:37:09;7.50;73.00
48978;DHT22;34793;48.940;2.618;2022-12-11T14:39:46;7.80;72.70
48978;DHT22;34793;48.940;2.618;2022-12-11T14:42:17;8.00;71.60
48978;DHT22;34793;48.940;2.618;2022-12-11T14:44:48;8.20;71.60
48978;DHT22;34793;48.940;2.618;2022-12-11T14:47:18;8.20;70.70
48978;DHT22;34793;48.940;2.618;2022-12-11T14:49:47;7.90;70.80
48978;DHT22;34793;48.940;2.618;2022-12-11T14:52:47;7.70;72.40
48978;DHT22;34793;48.940;2.618;2022-12-11T14:55:06;7.90;71.70
48978;DHT22;34793;48.940;2.618;2022-12-11T14:57:33;8.20;71.10
48978;DHT22;34793;48.940;2.618;2022-12-11T14:59:59;8.20;71.40
48978;DHT22;34793;48.940;2.618;2022-12-11T15:02:34;8.30;71.30
48978;DHT22;34793;48.940;2.618;2022-12-11T15:07:32;7.90;71.30
48978;DHT22;34793;48.940;2.618;2022-12-11T15:09:58;7.70;72.10
48978;DHT22;34793;48.940;2.618;2022-12-11T15:12:23;6.80;73.70
48978;DHT22;34793;48.940;2.618;2022-12-11T15:14:54;6.50;75.80
48978;DHT22;34793;48.940;2.618;2022-12-11T15:17:20;6.50;75.20
48978;DHT22;34793;48.940;2.618;2022-12-11T15:19:50;6.40;75.50
48978;DHT22;34793;48.940;2.618;2022-12-11T15:22:17;6.60;75.60
48978;DHT22;34793;48.940;2.618;2022-12-11T15:24:43;6.60;75.00
48978;DHT22;34793;48.940;2.618;2022-12-11T15:27:31;6.80;74.70
48978;DHT22;34793;48.940;2.618;2022-12-11T15:29:58;6.70;74.40
48978;DHT22;34793;48.940;2.618;2022-12-11T15:32:24;6.30;76.20
48978;DHT22;34793;48.940;2.618;2022-12-11T15:34:56;6.50;74.80
48978;DHT22;34793;48.940;2.618;2022-12-11T15:39:52;6.60;74.60
48978;DHT22;34793;48.940;2.618;2022-12-11T15:44:49;6.90;74.10
48978;DHT22;34793;48.940;2.618;2022-12-11T15:47:17;7.10;73.20
48978;DHT22;34793;48.940;2.618;2022-12-11T15:49:44;7.30;72.90
48978;DHT22;34793;48.940;2.618;2022-12-11T15:52:10;7.50;72.00
48978;DHT22;34793;48.940;2.618;2022-12-11T15:54:35;7.50;71.50
48978;DHT22;34793;48.940;2.618;2022-12-11T15:57:02;7.70;70.60
48978;DHT22;34793;48.940;2.618;2022-12-11T15:59:28;7.70;70.80
48978;DHT22;34793;48.940;2.618;2022-12-11T16:01:53;7.60;70.60
48978;DHT22;34793;48.940;2.618;2022-12-11T16:04:19;7.10;71.60
48978;DHT22;34793;48.940;2.618;2022-12-11T16:06:44;7.10;72.80
48978;DHT22;34793;48.940;2.618;2022-12-11T16:09:14;7.30;72.00
48978;DHT22;34793;48.940;2.618;2022-12-11T16:11:45;7.20;71.70
48978;DHT22;34793;48.940;2.618;2022-12-11T16:14:14;7.10;71.00
48978;DHT22;34793;48.940;2.618;2022-12-11T16:16:40;7.20;71.70
48978;DHT22;34793;48.940;2.618;2022-12-11T16:19:06;7.30;71.80
48978;DHT22;34793;48.940;2.618;2022-12-11T16:21:31;7.10;71.60
48978;DHT22;34793;48.940;2.618;2022-12-11T16:23:56;7.20;71.70
48978;DHT22;34793;48.940;2.618;2022-12-11T16:26:24;7.10;72.20
48978;DHT22;34793;48.940;2.618;2022-12-11T16:28:49;7.20;72.20
48978;DHT22;34793;48.940;2.618;2022-12-11T16:31:15;7.30;71.70
48978;DHT22;34793;48.940;2.618;2022-12-11T16:33:41;7.20;72.20
48978;DHT22;34793;48.940;2.618;2022-12-11T16:36:13;6.90;73.00
48978;DHT22;34793;48.940;2.618;2022-12-11T16:38:39;6.70;73.80
48978;DHT22;34793;48.940;2.618;2022-12-11T16:41:05;6.50;74.60
48978;DHT22;34793;48.940;2.618;2022-12-11T16:43:31;5.90;76.90
48978;DHT22;34793;48.940;2.618;2022-12-11T16:45:57;5.80;77.50
48978;DHT22;34793;48.940;2.618;2022-12-11T16:48:23;5.70;77.80
48978;DHT22;34793;48.940;2.618;2022-12-11T16:50:51;5.70;77.70
48978;DHT22;34793;48.940;2.618;2022-12-11T16:53:16;5.40;78.60
48978;DHT22;34793;48.940;2.618;2022-12-11T16:55:42;5.40;79.00
48978;DHT22;34793;48.940;2.618;2022-12-11T16:58:07;5.00;80.00
48978;DHT22;34793;48.940;2.618;2022-12-11T17:00:33;4.80;81.00
48978;DHT22;34793;48.940;2.618;2022-12-11T17:02:59;4.80;80.90
48978;DHT22;34793;48.940;2.618;2022-12-11T17:05:25;4.70;80.90
48978;DHT22;34793;48.940;2.618;2022-12-11T17:07:51;4.40;82.20
48978;DHT22;34793;48.940;2.618;2022-12-11T17:10:16;4.40;83.20
48978;DHT22;34793;48.940;2.618;2022-12-11T17:12:42;4.30;83.10